Time;durP1;ratioP1;P1;durP2;ratioP2;P2;SDS_P1;SDS_P2;PMS_P1;PMS_P2;Temp;Humidity;BMP_temperature;BMP_pressure;BME280_temperature;BME280_humidity;BME280_pressure;Samples;Min_cycle;Max_cycle;Signal;HPM_P1;HPM_P2
2022/08/04 00:00:17;;;;;;;14.90;13.60;;;;;;;23.93;48.39;100322.38;4891080;28;97843;-82
2022/08/04 00:02:55;;;;;;;14.25;13.00;;;;;;;23.74;48.75;100283.00;4902050;28;97984;-82
2022/08/04 00:05:39;;;;;;;14.93;13.50;;;;;;;23.80;48.40;100319.13;4902349;28;96712;-82
2022/08/04 00:08:25;;;;;;;14.50;13.15;;;;;;;23.78;48.51;100316.56;4899421;28;97251;-82
2022/08/04 00:10:54;;;;;;;14.48;13.00;;;;;;;23.78;48.23;100315.72;4897356;28;100141;-82
2022/08/04 00:13:24;;;;;;;14.32;12.90;;;;;;;23.70;48.36;100314.56;4880301;28;99207;-82
2022/08/04 00:15:52;;;;;;;14.30;13.10;;;;;;;23.68;48.64;100323.72;4887798;28;96875;-83
2022/08/04 00:18:22;;;;;;;14.45;13.15;;;;;;;23.69;48.18;100318.22;4882419;28;96973;-82
2022/08/04 00:20:48;;;;;;;13.68;12.57;;;;;;;23.43;49.23;100300.91;4885799;28;101730;-82
2022/08/04 00:23:15;;;;;;;14.25;12.82;;;;;;;23.37;48.72;100293.44;4888021;28;100412;-82
2022/08/04 00:25:43;;;;;;;14.48;13.30;;;;;;;23.50;48.88;100307.41;4904840;28;100667;-82
2022/08/04 00:28:08;;;;;;;14.48;13.07;;;;;;;23.45;48.85;100313.19;4891174;28;99612;-82
2022/08/04 00:30:34;;;;;;;14.88;13.52;;;;;;;23.54;49.02;100310.69;4890553;28;98202;-83
2022/08/04 00:33:00;;;;;;;14.93;13.48;;;;;;;23.39;49.14;100308.38;4897656;28;99255;-82
2022/08/04 00:35:27;;;;;;;13.65;12.50;;;;;;;23.43;48.97;100314.31;4888948;28;97225;-83
2022/08/04 00:37:54;;;;;;;14.57;13.27;;;;;;;23.39;49.17;100311.06;4886856;28;97210;-83
2022/08/04 00:40:46;;;;;;;13.95;12.95;;;;;;;23.34;49.37;100312.44;4896923;28;98351;-82
2022/08/04 00:43:22;;;;;;;14.52;13.30;;;;;;;23.30;49.52;100319.91;4879719;28;97648;-83
2022/08/04 00:46:32;;;;;;;14.43;13.15;;;;;;;23.30;49.59;100316.34;4903714;28;96934;-83
2022/08/04 00:49:40;;;;;;;15.73;13.00;;;;;;;23.22;49.67;100315.22;4899967;28;97120;-83
2022/08/04 00:52:20;;;;;;;14.52;13.02;;;;;;;23.36;49.32;100311.34;4909132;28;98540;-83
2022/08/04 00:54:58;;;;;;;14.98;13.27;;;;;;;23.21;49.76;100316.22;4891940;28;100505;-83
2022/08/04 00:57:48;;;;;;;15.13;13.60;;;;;;;23.09;49.99;100317.25;4908642;28;96705;-81
2022/08/04 01:00:15;;;;;;;14.65;13.55;;;;;;;23.03;50.08;100312.44;4907749;28;97070;-82
2022/08/04 01:03:16;;;;;;;14.70;13.43;;;;;;;22.88;50.29;100290.47;4913128;28;98593;-82
2022/08/04 01:06:16;;;;;;;14.55;13.43;;;;;;;22.97;50.48;100316.47;4877260;28;101872;-84
2022/08/04 01:09:06;;;;;;;15.05;13.70;;;;;;;22.92;50.49;100321.38;4906459;28;96831;-82
2022/08/04 01:12:20;;;;;;;14.38;13.18;;;;;;;22.94;50.34;100327.41;4882616;28;96860;-82
2022/08/04 01:15:00;;;;;;;15.68;13.95;;;;;;;22.82;50.67;100329.31;4891334;28;97661;-82
2022/08/04 01:17:32;;;;;;;15.50;14.25;;;;;;;22.89;50.59;100326.94;4914290;28;97620;-82
2022/08/04 01:20:06;;;;;;;16.73;13.57;;;;;;;22.79;50.80;100332.25;4896609;28;97305;-82
2022/08/04 01:22:31;;;;;;;15.05;13.27;;;;;;;22.79;51.06;100332.25;4880528;28;96733;-82
2022/08/04 01:25:28;;;;;;;14.93;13.57;;;;;;;22.56;51.42;100331.53;4900566;28;97412;-82
2022/08/04 01:28:10;;;;;;;14.85;13.50;;;;;;;22.47;51.37;100313.56;4914048;28;97867;-82
2022/08/04 01:30:36;;;;;;;15.48;14.02;;;;;;;22.49;51.63;100322.31;4912335;28;97355;-82
2022/08/04 01:33:03;;;;;;;15.32;14.02;;;;;;;22.62;51.48;100332.00;4881072;28;96986;-82
2022/08/04 01:35:35;;;;;;;14.93;13.77;;;;;;;22.37;51.48;100304.66;4891903;28;98160;-82
2022/08/04 01:38:13;;;;;;;15.13;13.82;;;;;;;22.48;51.70;100328.63;4892890;28;101202;-81
2022/08/04 01:40:40;;;;;;;14.35;13.10;;;;;;;22.44;51.77;100297.78;4912426;28;96736;-82
2022/08/04 01:43:08;;;;;;;14.50;13.38;;;;;;;22.54;51.54;100327.28;4897007;28;96915;-82
2022/08/04 01:45:36;;;;;;;14.43;12.98;;;;;;;22.54;51.64;100328.16;4911539;28;97608;-82
2022/08/04 01:48:02;;;;;;;15.63;14.10;;;;;;;22.33;52.05;100322.75;4880298;28;101097;-82
2022/08/04 01:50:34;;;;;;;15.30;13.90;;;;;;;22.39;51.91;100329.41;4911414;28;97215;-82
2022/08/04 01:53:01;;;;;;;15.38;14.07;;;;;;;22.32;52.03;100318.38;4893247;28;96881;-82
2022/08/04 01:55:28;;;;;;;13.80;12.85;;;;;;;22.32;52.11;100331.75;4879401;28;102005;-81
2022/08/04 01:57:57;;;;;;;14.43;13.30;;;;;;;22.21;52.23;100306.88;4897237;28;97989;-82
2022/08/04 02:00:26;;;;;;;14.98;13.55;;;;;;;22.11;52.55;100298.75;4895710;28;96910;-82
2022/08/04 02:02:52;;;;;;;17.15;13.23;;;;;;;22.10;52.61;100305.06;4893451;28;97170;-82
2022/08/04 02:05:20;;;;;;;14.77;13.55;;;;;;;22.22;52.42;100312.09;4890588;28;101294;-82
2022/08/04 02:08:10;;;;;;;15.40;14.00;;;;;;;22.19;52.62;100311.50;4901252;28;97489;-82
2022/08/04 02:10:48;;;;;;;16.38;14.77;;;;;;;22.10;52.92;100313.91;4895699;28;97346;-81
2022/08/04 02:14:05;;;;;;;19.73;14.02;;;;;;;22.19;52.41;100312.34;4901417;28;96865;-82
2022/08/04 02:16:44;;;;;;;14.70;13.57;;;;;;;22.17;52.51;100311.66;4876189;28;100818;-82
2022/08/04 02:19:32;;;;;;;15.00;13.75;;;;;;;21.98;53.04;100308.75;4896205;28;98419;-82
2022/08/04 02:22:08;;;;;;;14.10;12.88;;;;;;;21.92;52.99;100292.22;4912435;28;96756;-82
2022/08/04 02:24:42;;;;;;;14.57;13.38;;;;;;;22.06;52.83;100308.97;4892512;28;97120;-82
2022/08/04 02:27:09;;;;;;;14.27;13.18;;;;;;;21.96;53.01;100310.69;4870898;28;100662;-82
2022/08/04 02:29:41;;;;;;;16.08;14.52;;;;;;;21.85;53.08;100306.25;4875613;28;101346;-82
2022/08/04 02:32:38;;;;;;;15.57;14.18;;;;;;;21.81;53.18;100299.44;4901408;28;96886;-82
2022/08/04 02:35:26;;;;;;;15.82;13.65;;;;;;;21.89;53.31;100307.69;4884721;28;96897;-82
2022/08/04 02:38:10;;;;;;;13.95;12.65;;;;;;;21.90;53.39;100301.34;4895653;28;97804;-82
2022/08/04 02:40:38;;;;;;;15.45;14.10;;;;;;;21.89;53.15;100299.66;4900666;28;101368;-81
2022/08/04 02:43:05;;;;;;;16.10;14.73;;;;;;;21.92;52.86;100286.88;4910270;28;96847;-82
2022/08/04 02:45:31;;;;;;;15.23;13.85;;;;;;;21.95;53.48;100303.66;4899514;28;96821;-82
2022/08/04 02:47:58;;;;;;;14.68;13.48;;;;;;;21.91;53.41;100301.25;4892773;28;97775;-81
2022/08/04 02:50:24;;;;;;;14.90;13.68;;;;;;;21.95;53.24;100288.47;4894994;28;101807;-82
2022/08/04 02:52:51;;;;;;;16.08;14.57;;;;;;;21.79;53.41;100274.69;4904584;28;96673;-82
2022/08/04 02:55:17;;;;;;;15.40;13.93;;;;;;;21.96;53.27;100298.16;4879263;28;96985;-82
2022/08/04 02:57:44;;;;;;;15.68;14.35;;;;;;;21.87;53.65;100305.13;4894744;28;99719;-82
2022/08/04 03:00:14;;;;;;;15.85;14.25;;;;;;;21.84;53.80;100305.38;4893253;28;97978;-82
2022/08/04 03:02:55;;;;;;;21.30;15.02;;;;;;;21.79;54.09;100304.06;4892303;28;96828;-82
2022/08/04 03:05:25;;;;;;;15.20;13.85;;;;;;;21.73;54.07;100307.22;4907880;28;96770;-82
2022/08/04 03:08:09;;;;;;;15.20;13.97;;;;;;;21.70;54.00;100314.53;4894376;28;101395;-82
2022/08/04 03:11:01;;;;;;;16.20;14.73;;;;;;;21.75;54.16;100311.47;4910211;28;97907;-81
2022/08/04 03:14:08;;;;;;;15.25;13.77;;;;;;;21.74;54.34;100317.78;4911704;28;96852;-82
2022/08/04 03:16:42;;;;;;;17.80;15.95;;;;;;;21.75;54.15;100305.28;4901495;28;96861;-82
2022/08/04 03:19:13;;;;;;;16.02;14.45;;;;;;;21.60;54.36;100291.34;4910874;28;101651;-81
2022/08/04 03:22:16;;;;;;;15.13;13.77;;;;;;;21.68;54.59;100307.59;4893926;28;101815;-82
2022/08/04 03:25:27;;;;;;;15.48;14.18;;;;;;;21.64;54.88;100307.00;4892098;28;96864;-81
2022/08/04 03:27:58;;;;;;;15.30;14.18;;;;;;;21.57;54.80;100307.63;4880952;28;96927;-82
2022/08/04 03:30:27;;;;;;;;;;;;;;;21.54;54.91;100305.19;4895142;28;101762;-82
2022/08/04 03:33:17;;;;;;;16.05;14.63;;;;;;;21.42;54.95;100285.66;4910832;28;97818;-82
2022/08/04 03:36:10;;;;;;;14.70;13.50;;;;;;;21.55;54.64;100310.38;4909592;28;96986;-81
2022/08/04 03:38:50;;;;;;;16.02;14.43;;;;;;;21.65;54.48;100316.72;4894258;28;96827;-82
2022/08/04 03:41:43;;;;;;;16.85;15.18;;;;;;;21.46;54.62;100305.78;4906134;28;97688;-81
2022/08/04 03:44:24;;;;;;;16.35;14.75;;;;;;;21.53;54.78;100322.19;4895147;28;98147;-82
2022/08/04 03:47:31;;;;;;;15.70;14.40;;;;;;;21.44;55.09;100326.44;4894377;28;96731;-82
2022/08/04 03:50:11;;;;;;;15.55;13.98;;;;;;;21.42;55.06;100312.34;4840773;28;97023;-82
2022/08/04 03:55:58;;;;;;;17.42;15.80;;;;;;;21.46;54.76;100325.31;4912159;28;97564;-81
2022/08/04 03:58:42;;;;;;;19.75;15.80;;;;;;;21.44;54.79;100326.44;4896601;28;97622;-84
2022/08/04 04:01:49;;;;;;;16.80;15.30;;;;;;;21.46;54.65;100321.81;4910449;28;96915;-82
2022/08/04 04:04:43;;;;;;;18.10;14.93;;;;;;;21.33;54.97;100305.91;4882542;28;97426;-82
2022/08/04 04:07:14;;;;;;;17.13;15.90;;;;;;;21.41;54.98;100321.31;4891897;28;97392;-81
2022/08/04 04:10:31;;;;;;;16.75;15.45;;;;;;;21.40;54.99;100311.63;4909556;28;97148;-81
2022/08/04 04:13:12;;;;;;;17.08;15.27;;;;;;;21.54;55.07;100318.53;4877051;28;97200;-81
2022/08/04 04:16:14;;;;;;;17.05;15.60;;;;;;;21.60;54.94;100318.03;4909733;28;98323;-82
2022/08/04 04:19:10;;;;;;;17.65;15.98;;;;;;;21.58;54.79;100323.50;4911399;28;97937;-82
2022/08/04 04:21:39;;;;;;;17.58;15.85;;;;;;;21.60;54.97;100316.22;4899748;28;96674;-81
2022/08/04 04:24:23;;;;;;;17.30;15.70;;;;;;;21.66;55.02;100317.56;4913239;28;96988;-82
2022/08/04 04:27:05;;;;;;;17.40;15.75;;;;;;;21.77;54.75;100325.56;4912758;28;101415;-82
2022/08/04 04:29:30;;;;;;;17.88;16.08;;;;;;;21.87;54.53;100318.47;4896570;28;101384;-81
2022/08/04 04:32:19;;;;;;;17.17;15.60;;;;;;;21.90;54.26;100301.34;4913375;28;97035;-82
2022/08/04 04:35:13;;;;;;;16.85;15.25;;;;;;;22.24;53.67;100325.34;4901212;28;96742;-82
2022/08/04 04:37:45;;;;;;;16.27;14.90;;;;;;;22.42;53.24;100321.13;4896786;28;101300;-81
2022/08/04 04:40:40;;;;;;;18.17;16.45;;;;;;;22.40;53.36;100328.44;4913189;28;101164;-82
2022/08/04 04:43:12;;;;;;;16.88;15.57;;;;;;;22.57;53.04;100327.88;4880500;28;97193;-82
2022/08/04 04:45:52;;;;;;;17.92;16.08;;;;;;;22.74;52.68;100325.59;4912527;28;96954;-82
2022/08/04 04:49:09;;;;;;;20.67;17.63;;;;;;;22.98;52.32;100322.66;4913564;28;98154;-82
2022/08/04 04:52:13;;;;;;;17.08;15.27;;;;;;;23.20;51.97;100325.19;4901371;28;97321;-82
2022/08/04 04:54:42;;;;;;;16.27;14.88;;;;;;;23.21;51.79;100315.34;4894727;28;96995;-81
2022/08/04 04:57:20;;;;;;;16.10;14.68;;;;;;;23.34;51.52;100329.34;4876845;28;96886;-82
2022/08/04 05:00:03;;;;;;;16.77;15.30;;;;;;;23.40;50.94;100312.75;4885485;28;98054;-82
2022/08/04 05:03:06;;;;;;;16.52;15.30;;;;;;;23.67;50.72;100328.19;4897037;28;101677;-82
2022/08/04 05:05:52;;;;;;;16.58;15.23;;;;;;;23.87;50.49;100339.84;4914492;28;97346;-83
2022/08/04 05:08:33;;;;;;;17.00;15.30;;;;;;;24.06;49.65;100335.53;4914533;28;96738;-82
2022/08/04 05:10:58;;;;;;;17.80;15.95;;;;;;;24.17;49.61;100330.91;4896725;28;98265;-82
2022/08/04 05:13:35;;;;;;;20.15;15.43;;;;;;;24.33;49.22;100342.91;4910259;28;97988;-83
2022/08/04 05:16:06;;;;;;;16.77;15.38;;;;;;;24.43;48.89;100327.69;4898852;28;96890;-83
2022/08/04 05:18:33;;;;;;;16.10;14.80;;;;;;;24.61;48.63;100333.19;4897932;28;96637;-82
2022/08/04 05:21:20;;;;;;;15.82;14.52;;;;;;;24.76;48.31;100325.56;4911840;28;97729;-82
2022/08/04 05:23:48;;;;;;;16.80;15.20;;;;;;;24.89;48.11;100315.34;4903307;28;101095;-83
2022/08/04 05:26:16;;;;;;;17.42;15.80;;;;;;;24.83;47.70;100308.72;4882381;28;96726;-83
2022/08/04 05:28:50;;;;;;;17.55;15.32;;;;;;;24.98;47.58;100311.78;4893844;28;96814;-82
2022/08/04 05:31:23;;;;;;;16.73;15.20;;;;;;;25.27;47.15;100329.69;4912205;28;97690;-82
2022/08/04 05:33:56;;;;;;;17.65;16.00;;;;;;;25.20;47.13;100293.66;4911957;28;97720;-83
2022/08/04 05:36:29;;;;;;;17.42;15.73;;;;;;;25.69;46.24;100313.09;4895781;28;96985;-83
2022/08/04 05:38:58;;;;;;;16.98;15.23;;;;;;;25.88;45.61;100285.28;4880589;28;96747;-83
2022/08/04 05:41:26;;;;;;;16.95;15.50;;;;;;;26.46;45.01;100319.78;4896104;28;101610;-83
2022/08/04 05:43:51;;;;;;;15.82;14.48;;;;;;;27.74;43.18;100318.28;4912755;28;98201;-83
2022/08/04 05:46:18;;;;;;;15.20;13.77;;;;;;;28.56;41.27;100315.75;4880509;28;96832;-83
2022/08/04 05:48:44;;;;;;;15.15;13.90;;;;;;;29.56;39.25;100300.88;4896233;28;96973;-85
2022/08/04 05:51:10;;;;;;;15.50;14.20;;;;;;;30.65;37.83;100317.13;4894126;28;98159;-83
2022/08/04 05:53:37;;;;;;;16.88;14.95;;;;;;;31.31;36.16;100309.19;4897024;28;97352;-84
2022/08/04 05:56:03;;;;;;;15.07;13.88;;;;;;;32.13;35.23;100311.69;4902264;28;97145;-86
2022/08/04 05:58:29;;;;;;;15.85;14.50;;;;;;;32.84;34.04;100314.47;4894143;28;97099;-86
2022/08/04 06:00:56;;;;;;;16.00;14.20;;;;;;;33.27;33.09;100303.47;4894005;28;100578;-86
2022/08/04 06:03:21;;;;;;;15.07;13.75;;;;;;;34.12;32.32;100281.41;4904227;28;97516;-86
2022/08/04 06:05:48;;;;;;;16.05;14.40;;;;;;;34.49;31.88;100305.34;4911844;28;96678;-86
2022/08/04 06:08:13;;;;;;;15.07;13.73;;;;;;;35.27;30.95;100304.66;4893985;28;96831;-86
2022/08/04 06:10:39;;;;;;;15.85;14.60;;;;;;;35.81;30.62;100311.63;4879996;28;100693;-87
2022/08/04 06:13:09;;;;;;;16.55;14.63;;;;;;;36.15;29.90;100295.91;4912157;28;97363;-86
2022/08/04 06:15:38;;;;;;;18.77;17.00;;;;;;;36.98;28.83;100294.81;4879115;28;98124;-87
2022/08/04 06:18:05;;;;;;;19.10;14.83;;;;;;;37.17;28.51;100315.66;4896118;28;96925;-86
2022/08/04 06:20:33;;;;;;;19.42;14.57;;;;;;;37.10;28.73;100317.63;4895857;28;98292;-87
2022/08/04 06:23:08;;;;;;;15.25;13.82;;;;;;;37.44;28.83;100315.38;4911676;28;97551;-86
2022/08/04 06:25:38;;;;;;;15.57;14.48;;;;;;;37.98;27.90;100308.19;4895631;28;97302;-87
2022/08/04 06:28:05;;;;;;;15.82;14.32;;;;;;;38.41;26.86;100312.63;4911498;28;96651;-87
2022/08/04 06:30:31;;;;;;;15.82;14.45;;;;;;;38.56;26.78;100311.31;4912154;28;97529;-86
2022/08/04 06:33:01;;;;;;;15.82;14.35;;;;;;;39.35;25.78;100312.63;4896027;28;98357;-87
2022/08/04 06:35:28;;;;;;;15.27;13.80;;;;;;;39.64;25.55;100301.69;4894845;28;97189;-85
2022/08/04 06:37:55;;;;;;;15.77;14.20;;;;;;;39.84;25.58;100310.38;4895523;28;97029;-86
2022/08/04 06:40:22;;;;;;;15.35;14.02;;;;;;;39.82;25.12;100298.78;4895265;28;97567;-85
2022/08/04 06:42:48;;;;;;;17.67;14.88;;;;;;;40.02;25.43;100312.06;4892175;28;101723;-84
2022/08/04 06:45:14;;;;;;;16.10;14.52;;;;;;;39.54;25.28;100288.59;4894668;28;96788;-85
2022/08/04 06:47:41;;;;;;;16.35;14.90;;;;;;;39.86;25.15;100310.13;4895717;28;96876;-85
2022/08/04 06:50:08;;;;;;;16.52;14.98;;;;;;;40.68;24.61;100301.41;4911044;28;98383;-86
2022/08/04 06:52:34;;;;;;;15.57;14.15;;;;;;;40.38;25.27;100307.25;4895749;28;101050;-85
2022/08/04 06:55:00;;;;;;;20.17;15.25;;;;;;;41.11;24.14;100307.31;4905056;28;97171;-86
2022/08/04 06:57:26;;;;;;;18.30;13.82;;;;;;;41.47;24.33;100305.84;4906161;28;96652;-86
2022/08/04 07:00:03;;;;;;;15.70;14.30;;;;;;;41.12;23.72;100300.69;4884810;28;101441;-85
2022/08/04 07:02:32;;;;;;;17.00;13.98;;;;;;;40.92;24.27;100309.47;4895992;28;101210;-85
2022/08/04 07:04:57;;;;;;;15.40;13.80;;;;;;;40.99;24.32;100298.28;4891361;28;96803;-86
2022/08/04 07:07:23;;;;;;;15.25;13.85;;;;;;;41.68;23.50;100304.16;4876659;28;97529;-85
2022/08/04 07:09:49;;;;;;;15.70;14.27;;;;;;;41.68;23.28;100303.34;4891642;28;98591;-84
2022/08/04 07:12:19;;;;;;;15.18;13.68;;;;;;;41.66;23.13;100305.50;4892212;28;99474;-85
2022/08/04 07:14:45;;;;;;;14.15;13.02;;;;;;;42.22;22.63;100297.84;4897733;28;96811;-86
2022/08/04 07:17:13;;;;;;;15.30;14.23;;;;;;;42.54;22.49;100303.38;4890990;28;96948;-86
2022/08/04 07:19:38;;;;;;;14.85;13.65;;;;;;;42.90;22.77;100300.88;4891707;28;97959;-86
2022/08/04 07:22:06;;;;;;;15.57;13.95;;;;;;;43.25;22.29;100291.97;4895228;28;100964;-86
2022/08/04 07:24:33;;;;;;;14.82;13.45;;;;;;;43.41;21.72;100292.88;4910646;28;96766;-85
2022/08/04 07:26:59;;;;;;;15.05;13.90;;;;;;;43.50;21.97;100290.44;4911369;28;96889;-85
2022/08/04 07:29:25;;;;;;;16.40;14.90;;;;;;;44.23;20.55;100291.16;4891061;28;97774;-85
2022/08/04 07:31:52;;;;;;;15.07;13.65;;;;;;;44.01;20.58;100277.59;4895015;28;97410;-85
2022/08/04 07:34:18;;;;;;;17.40;14.02;;;;;;;44.42;20.37;100293.38;4894991;28;96775;-86
2022/08/04 07:36:44;;;;;;;15.25;14.07;;;;;;;44.25;20.88;100288.13;4891099;28;97040;-86
2022/08/04 07:39:10;;;;;;;14.80;13.80;;;;;;;45.21;19.87;100289.13;4901875;28;101247;-86
2022/08/04 07:41:35;;;;;;;15.20;14.18;;;;;;;44.55;19.92;100286.47;4894508;28;97434;-86
2022/08/04 07:44:02;;;;;;;15.10;13.98;;;;;;;44.26;20.19;100278.72;4911014;28;98490;-86
2022/08/04 07:46:28;;;;;;;14.13;13.13;;;;;;;44.54;19.67;100282.88;4911186;28;96938;-86
2022/08/04 07:48:53;;;;;;;14.10;13.10;;;;;;;44.63;19.84;100294.22;4894298;28;101061;-85
2022/08/04 07:51:19;;;;;;;14.80;13.55;;;;;;;44.44;20.03;100288.41;4910342;28;97371;-86
2022/08/04 07:53:46;;;;;;;15.82;14.52;;;;;;;44.52;19.83;100285.09;4893954;28;97682;-86
2022/08/04 07:56:12;;;;;;;15.25;13.98;;;;;;;44.69;19.89;100280.06;4914646;28;98877;-86
2022/08/04 07:58:38;;;;;;;15.75;14.02;;;;;;;45.38;19.28;100283.19;4900757;28;100367;-86
2022/08/04 08:01:03;;;;;;;14.07;13.13;;;;;;;44.76;19.16;100273.44;4901884;28;101392;-86
2022/08/04 08:03:29;;;;;;;15.52;14.10;;;;;;;44.37;19.93;100283.16;4877561;28;99078;-85
2022/08/04 08:05:54;;;;;;;15.02;14.05;;;;;;;44.32;19.60;100277.59;4916630;28;96985;-86
2022/08/04 08:08:20;;;;;;;15.73;14.63;;;;;;;44.73;19.94;100281.19;4906818;28;101145;-86
2022/08/04 08:10:47;;;;;;;15.05;13.90;;;;;;;44.25;19.70;100277.06;4880421;28;101484;-86
2022/08/04 08:13:13;;;;;;;15.35;14.15;;;;;;;43.89;19.90;100282.53;4875915;28;96749;-86
2022/08/04 08:15:39;;;;;;;15.45;14.45;;;;;;;43.44;20.60;100284.06;4900439;28;96956;-86
2022/08/04 08:18:05;;;;;;;16.13;14.75;;;;;;;43.13;20.19;100275.63;4902348;28;101480;-86
2022/08/04 08:20:30;;;;;;;15.85;14.75;;;;;;;43.65;20.01;100275.84;4913422;28;97499;-85
2022/08/04 08:22:56;;;;;;;14.73;13.73;;;;;;;43.80;19.67;100273.94;4897070;28;96847;-86
2022/08/04 08:25:22;;;;;;;14.63;13.82;;;;;;;44.05;19.30;100275.94;4910272;28;96919;-86
2022/08/04 08:27:47;;;;;;;14.35;13.50;;;;;;;43.70;19.32;100276.69;4900759;28;98293;-85
2022/08/04 08:30:13;;;;;;;15.95;14.70;;;;;;;43.29;19.73;100265.50;4900107;28;101513;-86
2022/08/04 08:32:39;;;;;;;15.10;13.73;;;;;;;43.59;19.71;100284.13;4900824;28;96643;-86
2022/08/04 08:35:05;;;;;;;14.45;13.55;;;;;;;44.53;18.93;100272.91;4916195;28;97263;-86
2022/08/04 08:37:37;;;;;;;15.18;14.05;;;;;;;44.77;18.86;100278.69;4916620;28;100853;-85
2022/08/04 08:40:21;;;;;;;15.00;14.00;;;;;;;45.18;19.26;100275.84;4901126;28;97390;-86
2022/08/04 08:42:49;;;;;;;15.45;14.45;;;;;;;45.54;18.93;100284.00;4914186;28;96729;-85
2022/08/04 08:45:34;;;;;;;15.68;14.77;;;;;;;45.17;18.88;100286.06;4917376;28;97412;-86
2022/08/04 08:48:48;;;;;;;15.75;14.50;;;;;;;44.68;18.75;100281.16;4900344;28;99169;-86
2022/08/04 08:51:51;;;;;;;15.32;14.27;;;;;;;44.80;18.76;100275.38;4910498;28;97664;-86
2022/08/04 08:54:26;;;;;;;15.15;14.05;;;;;;;44.32;18.48;100276.78;4916459;28;96872;-85
2022/08/04 08:57:29;;;;;;;15.85;14.48;;;;;;;43.64;19.11;100261.22;4902708;28;97816;-86
2022/08/04 09:00:29;;;;;;;14.80;13.70;;;;;;;43.89;19.54;100282.53;4909487;28;101789;-86
2022/08/04 09:03:38;;;;;;;14.98;13.88;;;;;;;43.74;19.58;100268.69;4868433;28;98026;-86
2022/08/04 09:06:19;;;;;;;14.57;13.63;;;;;;;43.97;19.14;100281.19;4887818;28;97046;-87
2022/08/04 09:09:03;;;;;;;14.15;13.15;;;;;;;43.75;19.19;100273.09;4912903;28;96795;-85
2022/08/04 09:11:54;;;;;;;14.57;13.68;;;;;;;43.12;19.40;100262.09;4913850;28;97933;-86
2022/08/04 09:14:25;;;;;;;15.13;13.75;;;;;;;43.36;19.21;100249.50;4882437;28;98024;-85
2022/08/04 09:16:55;;;;;;;15.50;14.10;;;;;;;43.47;19.33;100266.94;4915090;28;96578;-85
2022/08/04 09:19:26;;;;;;;14.73;13.27;;;;;;;43.07;20.19;100246.31;4908468;28;97137;-86
2022/08/04 09:22:29;;;;;;;13.88;12.90;;;;;;;43.49;19.40;100269.41;4873588;28;101599;-86
2022/08/04 09:25:03;;;;;;;14.18;13.18;;;;;;;43.25;18.93;100263.53;4880697;28;101872;-86
2022/08/04 09:27:55;;;;;;;14.40;13.27;;;;;;;43.46;19.27;100258.91;4913606;28;97659;-85
2022/08/04 09:30:31;;;;;;;13.88;13.07;;;;;;;42.82;19.45;100249.78;4896499;28;97896;-85
2022/08/04 09:33:13;;;;;;;13.85;12.77;;;;;;;41.88;19.68;100255.88;4893184;28;100571;-85
2022/08/04 09:35:53;;;;;;;14.50;13.45;;;;;;;41.43;20.42;100248.78;4892596;28;101216;-85
2022/08/04 09:38:34;;;;;;;14.40;13.30;;;;;;;41.17;20.59;100263.06;4884117;28;97346;-85
2022/08/04 09:41:12;;;;;;;14.30;13.25;;;;;;;40.86;21.34;100258.22;4896106;28;97705;-85
2022/08/04 09:43:37;;;;;;;13.63;12.57;;;;;;;40.79;21.03;100255.66;4912596;28;100969;-85
2022/08/04 09:46:12;;;;;;;14.35;13.10;;;;;;;40.25;22.09;100266.31;4913453;28;97359;-84
2022/08/04 09:49:23;;;;;;;13.45;12.60;;;;;;;39.69;22.71;100259.78;4896581;28;96655;-85
2022/08/04 09:51:52;;;;;;;14.60;13.30;;;;;;;39.39;22.81;100267.19;4911595;28;96880;-85
2022/08/04 09:54:26;;;;;;;13.88;12.73;;;;;;;39.22;22.91;100251.69;4913243;28;98188;-84
2022/08/04 09:57:13;;;;;;;14.20;13.20;;;;;;;39.21;23.28;100250.00;4878802;28;101893;-85
2022/08/04 09:59:53;;;;;;;15.05;13.95;;;;;;;38.92;23.59;100250.78;4904101;28;96645;-85
2022/08/04 10:02:21;;;;;;;14.85;13.60;;;;;;;38.43;24.35;100235.59;4896129;28;96858;-84
2022/08/04 10:04:48;;;;;;;14.93;13.70;;;;;;;38.54;24.76;100255.88;4892187;28;101556;-84
2022/08/04 10:07:46;;;;;;;14.27;12.90;;;;;;;39.10;23.17;100244.31;4909609;28;97405;-84
2022/08/04 10:10:47;;;;;;;14.32;13.32;;;;;;;38.44;24.35;100242.78;4895624;28;98402;-84
2022/08/04 10:13:24;;;;;;;13.75;12.75;;;;;;;38.14;24.59;100243.69;4908346;28;99398;-85
2022/08/04 10:16:05;;;;;;;14.35;13.35;;;;;;;37.86;24.28;100225.09;4896018;28;97716;-84
2022/08/04 10:18:45;;;;;;;14.35;13.35;;;;;;;37.64;24.25;100237.66;4912322;28;96912;-84
2022/08/04 10:21:26;;;;;;;14.40;13.05;;;;;;;36.78;25.08;100223.09;4899729;28;96699;-84
2022/08/04 10:24:00;;;;;;;14.68;13.70;;;;;;;36.43;25.47;100229.06;4880544;28;96988;-84
2022/08/04 10:26:47;;;;;;;13.60;12.60;;;;;;;36.43;25.92;100232.63;4910993;28;101766;-84
2022/08/04 10:29:20;;;;;;;13.25;12.35;;;;;;;36.43;25.84;100253.66;4912935;28;98020;-84
2022/08/04 10:31:56;;;;;;;13.55;12.48;;;;;;;35.81;25.83;100231.59;4895063;28;98414;-84
2022/08/04 10:34:25;;;;;;;13.57;12.65;;;;;;;35.46;26.27;100240.19;4892408;28;97621;-84
2022/08/04 10:36:58;;;;;;;13.33;12.53;;;;;;;35.28;26.72;100218.22;4898442;28;101323;-84
2022/08/04 10:39:31;;;;;;;14.52;12.23;;;;;;;35.09;26.92;100229.00;4891381;28;101447;-84
2022/08/04 10:42:16;;;;;;;12.85;11.93;;;;;;;34.88;27.19;100223.78;4912627;28;96721;-84
2022/08/04 10:44:57;;;;;;;13.45;12.43;;;;;;;34.84;26.81;100233.44;4892006;28;96938;-84
2022/08/04 10:47:27;;;;;;;13.35;12.15;;;;;;;34.52;27.75;100240.56;4895292;28;97795;-84
2022/08/04 10:49:59;;;;;;;12.40;11.70;;;;;;;34.10;27.84;100219.00;4895356;28;97515;-84
2022/08/04 10:52:47;;;;;;;11.98;11.23;;;;;;;34.18;27.67;100215.22;4911276;28;96740;-85
2022/08/04 10:55:17;;;;;;;13.40;12.27;;;;;;;34.09;28.20;100221.94;4879078;28;96878;-84
2022/08/04 10:57:51;;;;;;;13.65;12.50;;;;;;;33.84;28.41;100222.50;4884970;28;101355;-84
2022/08/04 11:00:27;;;;;;;14.13;11.98;;;;;;;33.78;28.29;100205.13;4909415;28;101668;-83
2022/08/04 11:03:09;;;;;;;13.18;11.77;;;;;;;33.92;28.35;100226.88;4892369;28;97148;-84
2022/08/04 11:05:46;;;;;;;15.35;12.48;;;;;;;33.69;28.70;100216.41;4895072;28;96828;-84
2022/08/04 11:08:19;;;;;;;12.48;11.68;;;;;;;33.53;28.72;100202.13;4911112;28;98543;-83
2022/08/04 11:11:07;;;;;;;12.55;11.60;;;;;;;33.66;29.41;100214.06;4879051;28;100997;-84
2022/08/04 11:13:44;;;;;;;12.55;11.45;;;;;;;33.50;29.31;100190.78;4912789;28;96902;-84
2022/08/04 11:16:22;;;;;;;12.57;11.77;;;;;;;33.42;29.12;100194.50;4895238;28;97467;-84
2022/08/04 11:19:22;;;;;;;12.18;11.07;;;;;;;33.45;29.21;100213.16;4906224;28;97820;-83
2022/08/04 11:22:26;;;;;;;11.93;11.23;;;;;;;33.58;28.91;100207.78;4911001;28;97755;-84
2022/08/04 11:25:34;;;;;;;12.50;11.45;;;;;;;33.53;29.70;100215.72;4878660;28;97811;-84
2022/08/04 11:28:12;;;;;;;12.20;11.20;;;;;;;33.43;30.33;100217.97;4878771;28;97306;-84
2022/08/04 11:30:58;;;;;;;11.52;10.80;;;;;;;33.49;30.45;100217.16;4857750;28;97533;-83
2022/08/04 11:33:35;;;;;;;12.60;11.52;;;;;;;33.36;30.19;100215.19;4885555;28;97878;-83
2022/08/04 11:36:02;;;;;;;12.38;11.57;;;;;;;33.31;30.49;100219.59;4896017;28;96853;-84
2022/08/04 11:38:38;;;;;;;13.63;12.73;;;;;;;33.12;30.02;100210.31;4910386;28;97070;-84
2022/08/04 11:41:09;;;;;;;12.73;11.93;;;;;;;33.08;30.57;100211.75;4894088;28;100782;-83
2022/08/04 11:43:52;;;;;;;12.20;11.35;;;;;;;33.07;30.33;100196.47;4891968;28;101556;-83
2022/08/04 11:46:35;;;;;;;12.93;12.13;;;;;;;33.08;30.68;100193.56;4893227;28;96869;-83
2022/08/04 11:49:11;;;;;;;15.32;12.30;;;;;;;33.22;30.03;100216.22;4895160;28;96689;-84
2022/08/04 11:51:37;;;;;;;12.77;11.88;;;;;;;33.13;29.95;100196.53;4893786;28;101122;-84